Time;durP1;ratioP1;P1;durP2;ratioP2;P2;SDS_P1;SDS_P2;PMS_P1;PMS_P2;Temp;Humidity;BMP_temperature;BMP_pressure;BME280_temperature;BME280_humidity;BME280_pressure;Samples;Min_cycle;Max_cycle;Signal;HPM_P1;HPM_P2
2021/05/28 00:01:42;;;;;;;7.63;7.03;;;6.20;76.20;;;;;;5188824;28;20049;-68
2021/05/28 00:04:14;;;;;;;7.65;7.05;;;6.20;76.10;;;;;;5190426;28;20038;-69
2021/05/28 00:06:46;;;;;;;9.40;7.15;;;6.20;75.80;;;;;;5191553;28;20124;-67
2021/05/28 00:09:18;;;;;;;7.53;6.70;;;6.20;76.20;;;;;;5192276;28;20034;-68
2021/05/28 00:11:50;;;;;;;8.13;6.90;;;6.20;76.00;;;;;;5192132;28;20571;-68
2021/05/28 00:14:22;;;;;;;7.53;6.82;;;6.00;76.40;;;;;;5190176;28;20089;-69
2021/05/28 00:16:54;;;;;;;7.78;7.10;;;6.10;76.40;;;;;;5191407;28;20029;-69
2021/05/28 00:19:26;;;;;;;7.30;6.70;;;6.10;76.20;;;;;;5189191;28;20042;-69
2021/05/28 00:21:58;;;;;;;7.22;6.63;;;6.00;76.20;;;;;;5191784;28;20060;-69
2021/05/28 00:24:30;;;;;;;8.70;7.82;;;6.00;76.20;;;;;;5193151;28;20071;-68
2021/05/28 00:27:02;;;;;;;7.55;6.82;;;6.10;76.40;;;;;;5191970;28;20171;-68
2021/05/28 00:29:34;;;;;;;7.13;6.53;;;6.00;76.20;;;;;;5192012;28;20065;-68
2021/05/28 00:32:06;;;;;;;7.40;6.80;;;6.00;76.20;;;;;;5190774;28;20127;-68
2021/05/28 00:34:38;;;;;;;8.00;7.20;;;5.90;76.30;;;;;;5192066;28;20123;-68
2021/05/28 00:37:10;;;;;;;7.68;7.07;;;5.90;76.70;;;;;;5189679;28;20581;-68
2021/05/28 00:39:42;;;;;;;7.65;6.97;;;5.90;77.00;;;;;;5194056;28;20501;-68
2021/05/28 00:42:14;;;;;;;7.32;6.72;;;5.80;77.10;;;;;;5190321;28;20476;-69
2021/05/28 00:44:46;;;;;;;7.35;6.72;;;5.80;76.90;;;;;;5191105;28;20046;-69
2021/05/28 00:47:18;;;;;;;7.85;7.07;;;5.80;77.00;;;;;;5192202;28;20054;-68
2021/05/28 00:49:50;;;;;;;7.05;6.45;;;5.90;76.90;;;;;;5190717;28;20463;-68
2021/05/28 00:52:22;;;;;;;7.95;7.10;;;5.90;77.00;;;;;;5189836;28;20451;-69
2021/05/28 00:54:55;;;;;;;7.05;6.45;;;5.90;77.20;;;;;;5192299;28;20061;-69
2021/05/28 00:57:29;;;;;;;8.00;7.10;;;5.90;77.00;;;;;;5189546;28;20902;-67
2021/05/28 01:00:03;;;;;;;7.28;6.60;;;5.80;77.20;;;;;;5193279;28;20143;-68
2021/05/28 01:02:35;;;;;;;8.23;7.20;;;5.90;76.10;;;;;;5188374;28;20568;-67
2021/05/28 01:05:08;;;;;;;7.93;7.22;;;5.90;76.10;;;;;;5190968;28;20053;-67
2021/05/28 01:07:40;;;;;;;7.70;7.05;;;5.70;76.50;;;;;;5187390;28;20069;-69
2021/05/28 01:10:14;;;;;;;7.70;7.00;;;5.70;76.80;;;;;;5186820;28;20049;-70
2021/05/28 01:12:46;;;;;;;7.55;6.85;;;5.70;76.60;;;;;;5190042;28;20797;-68
2021/05/28 01:15:18;;;;;;;11.07;7.13;;;5.60;76.60;;;;;;5193242;28;20065;-68
2021/05/28 01:17:50;;;;;;;7.35;6.75;;;5.60;76.60;;;;;;5176046;28;20116;-68
2021/05/28 01:20:22;;;;;;;7.53;6.82;;;5.70;76.80;;;;;;5192259;28;22025;-68
2021/05/28 01:22:56;;;;;;;7.70;7.10;;;5.70;76.30;;;;;;5187990;28;20041;-69
2021/05/28 01:25:28;;;;;;;8.02;7.32;;;5.70;76.10;;;;;;5194932;28;20052;-69
2021/05/28 01:28:00;;;;;;;8.20;6.95;;;5.70;76.20;;;;;;5177579;28;20076;-68
2021/05/28 01:30:32;;;;;;;7.93;7.10;;;5.70;76.20;;;;;;5191377;28;20041;-68
2021/05/28 01:33:05;;;;;;;7.72;6.97;;;5.70;76.10;;;;;;5168183;28;20038;-69
2021/05/28 01:35:37;;;;;;;7.53;6.88;;;5.70;76.50;;;;;;5191027;28;20037;-68
2021/05/28 01:38:08;;;;;;;7.50;6.90;;;5.60;76.50;;;;;;5175565;28;20448;-68
2021/05/28 01:40:40;;;;;;;7.60;7.00;;;5.60;76.70;;;;;;5188825;28;20071;-68
2021/05/28 01:43:12;;;;;;;7.55;6.85;;;5.60;76.80;;;;;;5187351;28;20049;-68
2021/05/28 01:45:45;;;;;;;9.20;6.97;;;5.50;77.10;;;;;;5204206;28;20144;-69
2021/05/28 01:48:17;;;;;;;8.00;7.30;;;5.50;77.00;;;;;;5188160;28;20089;-68
2021/05/28 01:50:49;;;;;;;7.80;7.10;;;5.40;77.10;;;;;;5187351;28;20044;-68
2021/05/28 01:53:25;;;;;;;7.88;7.18;;;5.40;77.20;;;;;;5187253;28;20046;-68
2021/05/28 01:55:57;;;;;;;8.13;7.38;;;5.40;77.20;;;;;;5189318;28;20165;-67
2021/05/28 01:58:29;;;;;;;7.22;6.63;;;5.40;77.40;;;;;;5187325;28;20073;-68
2021/05/28 02:01:01;;;;;;;7.60;6.90;;;5.30;77.20;;;;;;5191713;28;20660;-68
2021/05/28 02:03:33;;;;;;;7.65;6.95;;;5.40;77.10;;;;;;5190771;28;20046;-68
2021/05/28 02:06:05;;;;;;;7.53;6.82;;;5.30;77.00;;;;;;5186703;28;20054;-69
2021/05/28 02:08:37;;;;;;;7.43;6.82;;;5.40;77.50;;;;;;5192390;28;20135;-68
2021/05/28 02:11:09;;;;;;;7.72;7.03;;;5.30;77.40;;;;;;5186235;28;20762;-67
2021/05/28 02:13:41;;;;;;;7.57;6.88;;;5.40;77.20;;;;;;5186502;28;20582;-68
2021/05/28 02:16:13;;;;;;;7.55;6.85;;;5.30;77.00;;;;;;5177391;28;20073;-68
2021/05/28 02:18:45;;;;;;;8.38;7.68;;;5.30;76.80;;;;;;5189392;28;20092;-68
2021/05/28 02:21:17;;;;;;;7.80;7.10;;;5.30;76.50;;;;;;5188779;28;20099;-69
2021/05/28 02:23:48;;;;;;;7.50;6.80;;;5.30;76.30;;;;;;5190106;28;20069;-69
2021/05/28 02:26:21;;;;;;;9.70;6.78;;;5.30;75.90;;;;;;5187260;28;20069;-68
2021/05/28 02:28:52;;;;;;;8.00;7.20;;;5.30;76.90;;;;;;5187937;28;20116;-67
2021/05/28 02:31:25;;;;;;;7.93;7.22;;;5.30;77.10;;;;;;5190792;28;20145;-69
2021/05/28 02:33:56;;;;;;;8.20;7.40;;;5.20;77.60;;;;;;5191136;28;20065;-68
2021/05/28 02:36:28;;;;;;;7.38;6.68;;;5.20;77.60;;;;;;5193040;28;20167;-70
2021/05/28 02:39:00;;;;;;;7.43;6.82;;;5.10;78.50;;;;;;5189713;28;20093;-68
2021/05/28 02:41:33;;;;;;;7.50;6.90;;;5.00;78.40;;;;;;5187673;28;20136;-68
2021/05/28 02:44:05;;;;;;;7.25;6.65;;;5.00;78.50;;;;;;5188586;28;20136;-67
2021/05/28 02:46:37;;;;;;;7.28;6.47;;;5.00;78.40;;;;;;5185993;28;20041;-69
2021/05/28 02:49:09;;;;;;;7.65;7.00;;;5.00;79.20;;;;;;5193196;28;20465;-70
2021/05/28 02:51:41;;;;;;;7.47;6.70;;;4.90;78.40;;;;;;5175820;28;20068;-70
2021/05/28 02:54:13;;;;;;;7.43;6.72;;;4.80;77.80;;;;;;5190491;28;20033;-69
2021/05/28 02:56:45;;;;;;;7.30;6.70;;;4.70;78.00;;;;;;5186414;28;20038;-70
2021/05/28 02:59:17;;;;;;;7.32;6.72;;;4.80;77.40;;;;;;5186997;28;20455;-70
2021/05/28 03:01:49;;;;;;;7.50;6.80;;;4.80;77.50;;;;;;5185672;28;20096;-70
2021/05/28 03:04:21;;;;;;;8.07;7.32;;;4.80;78.30;;;;;;5190351;28;20099;-67
2021/05/28 03:06:53;;;;;;;7.18;6.50;;;4.80;78.00;;;;;;5189200;28;20742;-68
2021/05/28 03:09:25;;;;;;;7.88;7.18;;;4.80;77.70;;;;;;5186277;28;20068;-68
2021/05/28 03:11:57;;;;;;;7.75;6.90;;;4.80;77.70;;;;;;5188710;28;20112;-68
2021/05/28 03:14:29;;;;;;;7.53;6.82;;;4.80;78.00;;;;;;5190182;28;20041;-68
2021/05/28 03:17:01;;;;;;;7.57;6.88;;;4.80;77.10;;;;;;5176235;28;20084;-69
2021/05/28 03:19:41;;;;;;;7.40;6.80;;;4.80;77.70;;;;;;5189831;28;20053;-68
2021/05/28 03:24:47;;;;;;;7.47;6.88;;;4.60;78.60;;;;;;5185369;28;20140;-68
2021/05/28 03:27:19;;;;;;;7.57;6.97;;;4.60;78.70;;;;;;5187882;28;20135;-69
2021/05/28 03:29:51;;;;;;;7.22;6.63;;;4.60;79.70;;;;;;5189025;28;20158;-68
2021/05/28 03:32:27;;;;;;;7.93;7.22;;;4.60;79.40;;;;;;5189589;28;20042;-68
2021/05/28 03:34:58;;;;;;;7.70;7.00;;;4.70;79.30;;;;;;5174937;28;20069;-68
2021/05/28 03:37:31;;;;;;;7.53;6.90;;;4.70;78.70;;;;;;5189567;28;20547;-68
2021/05/28 03:40:03;;;;;;;7.63;6.93;;;4.70;79.10;;;;;;5190874;28;20037;-69
2021/05/28 03:42:35;;;;;;;7.82;7.13;;;4.80;78.50;;;;;;5191097;28;20050;-69
2021/05/28 03:45:09;;;;;;;7.97;7.13;;;4.80;77.70;;;;;;5194434;28;20045;-70
2021/05/28 03:47:41;;;;;;;7.68;6.60;;;4.80;78.40;;;;;;5196003;28;20060;-69
2021/05/28 03:50:13;;;;;;;7.63;6.90;;;4.80;78.30;;;;;;5192613;28;20450;-69
2021/05/28 03:52:45;;;;;;;7.45;6.75;;;4.80;78.20;;;;;;5186654;28;20041;-68
2021/05/28 03:55:17;;;;;;;7.68;6.97;;;4.80;77.70;;;;;;5193227;28;20061;-68
2021/05/28 03:57:49;;;;;;;7.40;6.80;;;4.80;77.40;;;;;;5196081;28;20876;-69
2021/05/28 04:00:22;;;;;;;7.60;6.85;;;4.70;77.30;;;;;;5191527;28;20155;-68
2021/05/28 04:02:54;;;;;;;7.43;6.72;;;4.70;77.80;;;;;;5190069;28;20065;-69
2021/05/28 04:05:26;;;;;;;7.50;6.80;;;4.70;78.10;;;;;;5193262;28;20571;-68
2021/05/28 04:07:58;;;;;;;7.32;6.72;;;4.60;78.50;;;;;;5190757;28;20438;-68
2021/05/28 04:10:30;;;;;;;7.35;6.75;;;4.60;77.90;;;;;;5191648;28;20409;-68
2021/05/28 04:13:02;;;;;;;7.28;6.68;;;4.60;78.10;;;;;;5193066;28;20042;-68
2021/05/28 04:15:34;;;;;;;7.97;7.28;;;4.50;78.60;;;;;;5192515;28;20831;-68
2021/05/28 04:18:06;;;;;;;6.90;6.30;;;4.50;79.00;;;;;;5190379;28;20586;-69
2021/05/28 04:20:43;;;;;;;7.80;7.10;;;4.60;78.50;;;;;;5190255;28;20966;-68
2021/05/28 04:23:15;;;;;;;7.90;7.10;;;4.60;78.00;;;;;;5191757;28;20124;-68
2021/05/28 04:25:48;;;;;;;7.82;7.10;;;4.70;78.20;;;;;;5192247;28;20447;-68
2021/05/28 04:28:20;;;;;;;7.75;7.00;;;4.70;78.70;;;;;;5188479;28;20069;-68
2021/05/28 04:30:52;;;;;;;7.53;6.82;;;4.70;79.30;;;;;;5192349;28;20049;-68
2021/05/28 04:33:24;;;;;;;7.22;6.63;;;4.70;80.20;;;;;;5189957;28;20042;-68
2021/05/28 04:35:56;;;;;;;7.53;6.82;;;4.70;79.80;;;;;;5191216;28;20382;-68
2021/05/28 04:38:28;;;;;;;8.32;6.80;;;4.90;79.40;;;;;;5190193;28;20143;-69
2021/05/28 04:41:00;;;;;;;7.97;7.28;;;5.10;78.80;;;;;;5176850;28;20077;-68
2021/05/28 04:43:33;;;;;;;7.72;7.03;;;5.20;79.10;;;;;;5190491;28;20041;-68
2021/05/28 04:46:05;;;;;;;7.85;7.18;;;5.40;80.40;;;;;;5188604;28;20073;-69
2021/05/28 04:48:37;;;;;;;8.05;7.18;;;5.50;80.20;;;;;;5187640;28;20750;-69
2021/05/28 04:51:09;;;;;;;8.20;6.95;;;5.60;80.20;;;;;;5189764;28;20033;-68
2021/05/28 04:53:40;;;;;;;7.72;7.03;;;5.80;79.90;;;;;;5189179;28;20037;-69
2021/05/28 04:56:12;;;;;;;8.15;7.45;;;5.80;79.50;;;;;;5193839;28;20073;-69
2021/05/28 04:58:44;;;;;;;9.40;7.40;;;6.00;79.00;;;;;;5195478;28;20053;-69
2021/05/28 05:01:16;;;;;;;8.85;7.95;;;6.10;78.90;;;;;;5190629;28;20041;-69
2021/05/28 05:03:48;;;;;;;8.27;7.47;;;6.30;79.20;;;;;;5192061;28;20033;-69
2021/05/28 05:06:20;;;;;;;8.20;7.50;;;6.30;78.80;;;;;;5190122;28;20052;-69
2021/05/28 05:08:52;;;;;;;8.73;7.75;;;6.50;80.20;;;;;;5189867;28;20112;-68
2021/05/28 05:11:39;;;;;;;8.93;8.13;;;6.60;79.80;;;;;;5189352;28;20153;-68
2021/05/28 05:14:14;;;;;;;8.15;7.45;;;6.80;79.10;;;;;;5183333;28;20046;-69
2021/05/28 05:16:46;;;;;;;8.23;7.43;;;7.00;78.70;;;;;;5191633;28;20079;-69
2021/05/28 05:19:19;;;;;;;8.68;7.47;;;7.10;78.30;;;;;;5188161;28;20461;-69
2021/05/28 05:21:52;;;;;;;8.73;7.82;;;7.30;77.00;;;;;;5174396;28;20073;-68
2021/05/28 05:24:24;;;;;;;8.63;7.93;;;7.40;76.50;;;;;;5187500;28;20125;-69
2021/05/28 05:26:56;;;;;;;8.90;8.10;;;7.60;76.00;;;;;;5189498;28;20065;-69
2021/05/28 05:29:28;;;;;;;8.95;8.10;;;7.70;75.90;;;;;;5188054;28;20041;-69
2021/05/28 05:32:01;;;;;;;8.45;7.75;;;7.80;75.50;;;;;;5188199;28;20100;-69
2021/05/28 05:34:33;;;;;;;8.73;7.93;;;8.00;75.50;;;;;;5188942;28;20798;-69
2021/05/28 05:37:05;;;;;;;8.57;7.78;;;8.10;75.80;;;;;;5188816;28;20042;-69
2021/05/28 05:39:37;;;;;;;8.98;8.18;;;8.30;74.20;;;;;;5190666;28;20042;-69
2021/05/28 05:42:09;;;;;;;8.77;7.97;;;8.30;73.60;;;;;;5186137;28;20530;-69
2021/05/28 05:44:41;;;;;;;8.48;7.78;;;8.40;73.40;;;;;;5188644;28;21825;-69
2021/05/28 05:47:13;;;;;;;8.75;8.05;;;8.50;73.50;;;;;;5186020;28;20061;-71
2021/05/28 05:49:45;;;;;;;9.02;8.07;;;8.50;73.70;;;;;;5188528;28;20069;-69
2021/05/28 05:52:17;;;;;;;9.23;8.32;;;8.70;73.70;;;;;;5185317;28;20037;-69
2021/05/28 05:54:48;;;;;;;8.82;8.02;;;8.80;73.60;;;;;;5186753;28;20041;-68
2021/05/28 05:57:21;;;;;;;8.80;8.00;;;8.90;74.70;;;;;;5189624;28;20127;-68
2021/05/28 05:59:53;;;;;;;9.15;8.30;;;9.10;73.90;;;;;;5172025;28;20049;-68
2021/05/28 06:02:27;;;;;;;9.40;8.50;;;9.20;72.60;;;;;;5186461;28;20509;-68
2021/05/28 06:04:59;;;;;;;9.70;8.80;;;9.40;73.30;;;;;;5201218;28;20481;-68
2021/05/28 06:07:31;;;;;;;9.35;8.55;;;9.50;71.70;;;;;;5169641;28;20052;-67
2021/05/28 06:10:03;;;;;;;9.40;8.60;;;9.70;71.40;;;;;;5178458;28;20156;-68
2021/05/28 06:12:35;;;;;;;9.60;8.80;;;9.80;71.80;;;;;;5188848;28;20068;-68
2021/05/28 06:15:08;;;;;;;9.48;8.52;;;9.90;69.70;;;;;;5188989;28;20528;-68
2021/05/28 06:17:39;;;;;;;9.13;8.32;;;10.00;71.20;;;;;;5187484;28;20493;-68
2021/05/28 06:20:12;;;;;;;9.50;8.68;;;10.10;70.30;;;;;;5187815;28;20048;-68
2021/05/28 06:22:46;;;;;;;9.45;8.65;;;10.30;72.40;;;;;;5169992;28;20091;-68
2021/05/28 06:25:19;;;;;;;9.95;9.15;;;10.40;70.70;;;;;;5188538;28;20563;-68
2021/05/28 06:27:51;;;;;;;9.75;8.95;;;10.60;68.30;;;;;;5189449;28;20149;-68
2021/05/28 06:30:23;;;;;;;9.73;8.93;;;10.70;69.60;;;;;;5186396;28;20046;-68
2021/05/28 06:32:55;;;;;;;9.63;8.82;;;10.80;66.40;;;;;;5184089;28;20092;-68
2021/05/28 06:35:27;;;;;;;10.00;9.15;;;10.90;66.40;;;;;;5168869;28;20065;-68
2021/05/28 06:37:59;;;;;;;10.05;9.15;;;11.10;68.00;;;;;;5187934;28;20523;-68
2021/05/28 06:40:31;;;;;;;10.32;9.52;;;11.20;66.60;;;;;;5187317;28;20049;-68
2021/05/28 06:43:04;;;;;;;9.85;9.05;;;11.40;67.40;;;;;;5186227;28;20042;-68
2021/05/28 06:45:36;;;;;;;10.38;9.43;;;11.50;65.10;;;;;;5188573;28;20582;-68
2021/05/28 06:48:08;;;;;;;9.75;8.95;;;11.60;64.50;;;;;;5172154;28;20045;-68
2021/05/28 06:50:41;;;;;;;9.88;8.98;;;11.70;62.40;;;;;;5186124;28;20045;-68
2021/05/28 06:53:13;;;;;;;9.95;9.15;;;11.80;61.50;;;;;;5185518;28;20084;-68
2021/05/28 06:55:45;;;;;;;10.50;9.50;;;11.90;63.90;;;;;;5184031;28;20049;-69
2021/05/28 06:58:20;;;;;;;10.70;9.73;;;12.00;61.40;;;;;;5173822;28;20604;-69
2021/05/28 07:00:55;;;;;;;10.13;9.32;;;12.10;64.60;;;;;;5184938;28;20096;-68
2021/05/28 07:03:30;;;;;;;10.57;9.57;;;12.30;65.90;;;;;;5170976;28;20920;-68
2021/05/28 07:06:02;;;;;;;10.20;9.30;;;12.40;60.40;;;;;;5191303;28;20045;-69
2021/05/28 07:08:34;;;;;;;10.32;9.52;;;12.50;61.70;;;;;;5186974;28;20077;-69
2021/05/28 07:11:07;;;;;;;10.50;9.70;;;12.60;60.00;;;;;;5184903;28;20141;-68
2021/05/28 07:13:39;;;;;;;10.80;9.90;;;12.60;58.50;;;;;;5194175;28;20471;-68
2021/05/28 07:16:11;;;;;;;13.02;9.98;;;12.80;63.20;;;;;;5189702;28;20050;-68
2021/05/28 07:18:43;;;;;;;10.80;9.80;;;12.90;58.60;;;;;;5193979;28;20430;-68
2021/05/28 07:21:16;;;;;;;11.23;10.23;;;13.10;65.00;;;;;;5192374;28;20053;-68
2021/05/28 07:23:47;;;;;;;10.82;9.95;;;13.30;62.80;;;;;;5194652;28;20041;-68
2021/05/28 07:26:20;;;;;;;11.00;10.02;;;13.40;59.00;;;;;;5189847;28;20579;-68
2021/05/28 07:28:52;;;;;;;10.93;9.82;;;13.50;60.70;;;;;;5192597;28;20041;-68
2021/05/28 07:31:23;;;;;;;10.18;9.38;;;13.60;62.30;;;;;;5191990;28;20041;-68
2021/05/28 07:33:55;;;;;;;11.38;10.38;;;13.70;60.60;;;;;;5191471;28;20050;-68
2021/05/28 07:36:27;;;;;;;10.77;9.93;;;13.80;61.80;;;;;;5190745;28;20518;-68
2021/05/28 07:38:59;;;;;;;10.90;10.00;;;14.00;63.30;;;;;;5191727;28;20128;-68
2021/05/28 07:41:31;;;;;;;10.90;10.00;;;14.10;62.20;;;;;;5196416;28;20516;-68
2021/05/28 07:44:05;;;;;;;10.82;9.88;;;14.10;59.70;;;;;;5193996;28;20084;-68
2021/05/28 07:46:43;;;;;;;11.00;10.13;;;14.10;59.10;;;;;;5189561;28;20057;-68
2021/05/28 07:49:15;;;;;;;11.10;10.20;;;14.30;60.90;;;;;;5174167;28;21055;-69
2021/05/28 07:51:47;;;;;;;11.25;10.35;;;14.40;57.70;;;;;;5157420;28;20044;-68
2021/05/28 07:54:20;;;;;;;10.90;10.00;;;14.50;60.30;;;;;;5190526;28;20080;-67
2021/05/28 07:56:52;;;;;;;11.70;10.60;;;14.60;61.20;;;;;;5189513;28;20069;-68
2021/05/28 07:59:24;;;;;;;11.90;10.85;;;14.70;60.40;;;;;;5173580;28;20463;-69
2021/05/28 08:01:57;;;;;;;11.88;10.88;;;14.80;60.00;;;;;;5191683;28;20132;-67
2021/05/28 08:04:29;;;;;;;11.77;10.65;;;14.90;60.30;;;;;;5197701;28;20045;-69
2021/05/28 08:07:01;;;;;;;12.10;11.20;;;15.00;59.10;;;;;;5192591;28;20118;-68
2021/05/28 08:09:33;;;;;;;12.07;11.10;;;15.10;59.30;;;;;;5193792;28;20696;-68
2021/05/28 08:12:05;;;;;;;12.50;11.50;;;15.20;59.60;;;;;;5173047;28;20046;-68
2021/05/28 08:14:37;;;;;;;12.30;11.30;;;15.30;60.40;;;;;;5191672;28;20440;-68
2021/05/28 08:17:09;;;;;;;12.00;11.10;;;15.30;58.30;;;;;;5171527;28;20077;-68
2021/05/28 08:19:41;;;;;;;12.50;11.55;;;15.40;59.60;;;;;;5190546;28;20069;-68
2021/05/28 08:22:14;;;;;;;11.50;10.55;;;15.50;59.40;;;;;;5188539;28;20530;-68
2021/05/28 08:24:46;;;;;;;12.35;11.30;;;15.50;55.90;;;;;;5189485;28;20441;-68
2021/05/28 08:27:17;;;;;;;12.77;11.63;;;15.60;57.70;;;;;;5190824;28;20548;-68
2021/05/28 08:29:49;;;;;;;11.88;10.95;;;15.70;55.90;;;;;;5188496;28;20224;-68
2021/05/28 08:32:21;;;;;;;11.68;10.77;;;15.70;56.40;;;;;;5186856;28;20046;-68
2021/05/28 08:34:53;;;;;;;12.05;11.05;;;15.80;57.20;;;;;;5191847;28;20103;-67
2021/05/28 08:37:25;;;;;;;12.40;11.48;;;15.80;53.60;;;;;;5183014;28;20037;-68
2021/05/28 08:39:57;;;;;;;11.85;10.95;;;15.90;56.00;;;;;;5176084;28;20045;-68
2021/05/28 08:42:30;;;;;;;11.73;10.80;;;16.10;56.40;;;;;;5189995;28;20045;-67
2021/05/28 08:45:05;;;;;;;12.15;11.20;;;16.20;56.50;;;;;;5176510;28;20072;-68
2021/05/28 08:47:43;;;;;;;12.20;11.15;;;16.30;55.10;;;;;;5190310;28;20050;-68
2021/05/28 08:50:16;;;;;;;12.68;11.70;;;16.40;53.70;;;;;;5188809;28;20042;-68
2021/05/28 08:52:48;;;;;;;12.60;11.70;;;16.40;53.30;;;;;;5187693;28;20040;-68
2021/05/28 08:55:20;;;;;;;12.10;11.10;;;16.50;51.10;;;;;;5190970;28;20137;-69
2021/05/28 08:57:52;;;;;;;12.32;11.35;;;16.60;52.90;;;;;;5191015;28;20148;-69
2021/05/28 09:00:25;;;;;;;12.18;11.27;;;16.70;50.20;;;;;;5190655;28;20050;-68
2021/05/28 09:03:26;;;;;;;12.70;11.60;;;16.70;49.60;;;;;;5187711;28;20060;-67
2021/05/28 09:06:02;;;;;;;12.10;11.10;;;16.70;53.60;;;;;;5193284;28;20048;-68
2021/05/28 09:08:36;;;;;;;12.95;11.73;;;16.80;52.30;;;;;;5189082;28;20038;-68
2021/05/28 09:11:10;;;;;;;12.30;11.38;;;16.90;52.40;;;;;;5191042;28;20053;-68
2021/05/28 09:13:50;;;;;;;12.00;11.10;;;17.00;52.00;;;;;;5193785;28;20041;-68
2021/05/28 09:16:26;;;;;;;12.63;11.55;;;17.00;50.00;;;;;;5175463;28;20069;-68
2021/05/28 09:18:59;;;;;;;12.30;11.40;;;17.00;48.50;;;;;;5189158;28;20082;-68
2021/05/28 09:21:35;;;;;;;12.25;11.23;;;17.10;52.10;;;;;;5188289;28;20050;-70
2021/05/28 09:24:24;;;;;;;12.30;11.30;;;17.20;49.30;;;;;;5189121;28;20521;-69
2021/05/28 09:27:17;;;;;;;12.43;11.52;;;17.20;47.40;;;;;;5172992;28;20528;-69
2021/05/28 09:29:58;;;;;;;12.55;11.63;;;17.30;50.30;;;;;;5174630;28;20124;-68
2021/05/28 09:32:31;;;;;;;12.95;11.95;;;17.40;49.20;;;;;;5186281;28;20049;-68
2021/05/28 09:35:05;;;;;;;12.75;11.75;;;17.40;48.00;;;;;;5188704;28;20041;-68
2021/05/28 09:37:43;;;;;;;12.52;11.63;;;17.50;46.90;;;;;;5179664;28;20190;-68
2021/05/28 09:40:20;;;;;;;11.90;11.00;;;17.60;49.40;;;;;;5186269;28;20073;-70
2021/05/28 09:42:53;;;;;;;12.20;11.20;;;17.50;47.00;;;;;;5191774;28;20449;-69
2021/05/28 09:45:36;;;;;;;12.27;11.38;;;17.50;50.20;;;;;;5172066;28;20112;-68
2021/05/28 09:48:13;;;;;;;12.70;11.68;;;17.70;49.50;;;;;;5191168;28;20405;-68
2021/05/28 09:51:03;;;;;;;12.48;11.48;;;17.80;47.10;;;;;;5189783;28;20045;-68
2021/05/28 09:53:43;;;;;;;12.80;11.60;;;17.80;47.90;;;;;;5188240;28;20049;-70
2021/05/28 09:56:27;;;;;;;13.13;12.13;;;18.00;49.00;;;;;;5189395;28;20080;-69
2021/05/28 09:59:07;;;;;;;12.45;11.55;;;18.00;48.80;;;;;;5177528;28;20042;-69
2021/05/28 10:02:01;;;;;;;11.90;11.00;;;18.10;45.80;;;;;;5187906;28;20128;-70
2021/05/28 10:04:33;;;;;;;12.73;11.82;;;18.20;48.10;;;;;;5189249;28;20045;-69
2021/05/28 10:07:06;;;;;;;12.63;11.52;;;18.30;49.70;;;;;;5186731;28;20048;-68
2021/05/28 10:09:38;;;;;;;11.88;10.98;;;18.40;44.80;;;;;;5192219;28;20077;-68
2021/05/28 10:12:09;;;;;;;12.93;11.93;;;18.40;45.80;;;;;;5188561;28;20049;-69
2021/05/28 10:14:41;;;;;;;12.95;11.95;;;18.40;46.50;;;;;;5187506;28;20076;-68
2021/05/28 10:17:14;;;;;;;12.25;11.35;;;18.30;47.70;;;;;;5187865;28;20568;-68
2021/05/28 10:19:47;;;;;;;12.80;11.80;;;18.30;45.80;;;;;;5186817;28;20073;-69
2021/05/28 10:22:22;;;;;;;12.60;11.60;;;18.20;46.10;;;;;;5190643;28;20061;-69
2021/05/28 10:24:54;;;;;;;13.32;12.25;;;18.30;46.80;;;;;;5187156;28;20471;-71
2021/05/28 10:27:25;;;;;;;13.10;12.15;;;18.50;48.30;;;;;;5186974;28;20134;-72
2021/05/28 10:29:58;;;;;;;13.07;12.07;;;18.60;47.50;;;;;;5174794;28;20069;-70
2021/05/28 10:32:29;;;;;;;12.77;11.73;;;18.70;48.30;;;;;;5189454;28;20095;-71
2021/05/28 10:35:16;;;;;;;13.77;12.65;;;18.80;47.00;;;;;;5174203;28;20419;-71
2021/05/28 10:37:48;;;;;;;13.02;12.10;;;18.80;47.30;;;;;;5172693;28;20153;-70
2021/05/28 10:40:28;;;;;;;13.13;12.20;;;18.70;44.50;;;;;;5172760;28;20472;-69
2021/05/28 10:43:05;;;;;;;12.77;11.82;;;18.80;48.10;;;;;;5185832;28;20157;-71
2021/05/28 10:45:56;;;;;;;12.93;12.00;;;18.90;47.40;;;;;;5186826;28;20050;-70
2021/05/28 10:48:43;;;;;;;13.30;12.30;;;19.10;49.10;;;;;;5202157;28;21017;-71
2021/05/28 10:51:37;;;;;;;13.20;12.20;;;19.20;48.30;;;;;;5187355;28;20046;-69
2021/05/28 10:54:08;;;;;;;12.90;12.00;;;19.30;47.80;;;;;;5179046;28;20072;-70
2021/05/28 10:56:44;;;;;;;13.23;12.30;;;19.40;43.60;;;;;;5186671;28;20076;-69
2021/05/28 10:59:17;;;;;;;13.45;12.45;;;19.40;47.00;;;;;;5184056;28;20529;-69
2021/05/28 11:01:52;;;;;;;13.40;12.40;;;19.50;44.50;;;;;;5186440;28;20164;-69
2021/05/28 11:04:44;;;;;;;13.43;12.43;;;19.50;44.50;;;;;;5186440;28;20133;-70
2021/05/28 11:07:16;;;;;;;13.65;12.63;;;19.70;47.70;;;;;;5179815;28;20050;-70
2021/05/28 11:09:50;;;;;;;13.75;12.75;;;19.80;46.90;;;;;;5186471;28;20057;-69
2021/05/28 11:12:25;;;;;;;14.15;13.05;;;19.90;48.30;;;;;;5185018;28;20045;-69
2021/05/28 11:14:57;;;;;;;13.63;12.63;;;20.00;42.10;;;;;;5177114;28;20057;-69
2021/05/28 11:17:29;;;;;;;13.88;12.88;;;20.00;44.80;;;;;;5188669;28;20049;-69
2021/05/28 11:20:06;;;;;;;13.38;12.38;;;20.10;44.40;;;;;;5193055;28;20038;-69
2021/05/28 11:22:41;;;;;;;13.63;12.57;;;20.00;43.10;;;;;;5189771;28;20041;-69
2021/05/28 11:25:14;;;;;;;12.93;12.02;;;20.00;45.30;;;;;;5187143;28;20123;-69
2021/05/28 11:27:55;;;;;;;14.18;13.05;;;20.00;43.50;;;;;;5184316;28;20435;-70
2021/05/28 11:30:35;;;;;;;13.65;12.55;;;20.00;45.50;;;;;;5176681;28;20490;-69
2021/05/28 11:33:08;;;;;;;13.95;12.85;;;20.20;43.80;;;;;;5170059;28;20141;-70
2021/05/28 11:35:42;;;;;;;13.82;12.73;;;20.40;44.50;;;;;;5185306;28;20074;-71
2021/05/28 11:38:14;;;;;;;14.05;12.95;;;20.30;46.40;;;;;;5179593;28;20041;-69
2021/05/28 11:40:49;;;;;;;13.77;12.68;;;20.30;40.60;;;;;;5188334;28;20091;-70
2021/05/28 11:43:21;;;;;;;14.43;13.32;;;20.30;43.50;;;;;;5188345;28;20099;-70
2021/05/28 11:45:55;;;;;;;14.00;12.95;;;20.30;44.60;;;;;;5175041;28;20077;-70
2021/05/28 11:48:28;;;;;;;13.50;12.50;;;20.50;45.90;;;;;;5189293;28;20128;-71
2021/05/28 11:51:02;;;;;;;13.65;12.50;;;20.60;46.50;;;;;;5173905;28;20089;-75
2021/05/28 11:53:38;;;;;;;14.63;13.50;;;20.80;43.80;;;;;;5186318;28;20678;-72
2021/05/28 11:56:10;;;;;;;14.02;12.75;;;20.80;40.60;;;;;;5161852;28;20116;-72
2021/05/28 11:58:50;;;;;;;13.40;12.32;;;20.90;47.10;;;;;;5186196;28;20136;-72
2021/05/28 12:01:22;;;;;;;13.75;12.75;;;21.00;43.70;;;;;;5178297;28;20127;-70
2021/05/28 12:03:54;;;;;;;14.43;13.32;;;21.00;44.80;;;;;;5191885;28;20048;-71
2021/05/28 12:06:34;;;;;;;13.90;12.77;;;21.00;40.50;;;;;;5187922;28;20156;-71
2021/05/28 12:09:06;;;;;;;14.38;13.27;;;21.00;42.20;;;;;;5190238;28;20120;-70
2021/05/28 12:11:38;;;;;;;14.00;13.00;;;21.10;44.90;;;;;;5191431;28;20046;-70
2021/05/28 12:14:12;;;;;;;14.20;13.15;;;21.20;43.10;;;;;;5197473;28;20073;-70
2021/05/28 12:16:45;;;;;;;14.05;13.00;;;21.10;43.40;;;;;;5187714;28;20060;-71
2021/05/28 12:19:17;;;;;;;14.57;13.38;;;21.10;43.10;;;;;;5190974;28;20049;-73
2021/05/28 12:21:49;;;;;;;14.05;12.85;;;21.10;44.00;;;;;;5191170;28;20057;-71
2021/05/28 12:24:21;;;;;;;14.43;13.43;;;21.10;42.60;;;;;;5191011;28;20120;-70
2021/05/28 12:26:53;;;;;;;14.35;13.25;;;21.20;43.80;;;;;;5171686;28;20165;-72
2021/05/28 12:29:26;;;;;;;13.75;12.75;;;21.20;43.40;;;;;;5170447;28;20568;-71
2021/05/28 12:31:58;;;;;;;14.45;13.05;;;21.20;40.40;;;;;;5187651;28;20154;-72
2021/05/28 12:34:30;;;;;;;13.90;12.90;;;21.20;42.00;;;;;;5189126;28;20049;-72
2021/05/28 12:37:02;;;;;;;13.85;12.85;;;21.30;41.40;;;;;;5175385;28;20049;-71
2021/05/28 12:39:34;;;;;;;14.13;13.13;;;21.10;41.00;;;;;;5192100;28;20069;-71
2021/05/28 12:42:06;;;;;;;13.73;12.73;;;21.10;41.00;;;;;;5176576;28;20515;-71
2021/05/28 12:44:38;;;;;;;14.15;13.05;;;21.10;43.70;;;;;;5188437;28;20504;-70
2021/05/28 12:47:11;;;;;;;14.30;13.27;;;21.20;41.50;;;;;;5187519;28;20133;-71
2021/05/28 12:49:44;;;;;;;14.48;13.38;;;21.30;42.00;;;;;;5181107;28;20033;-71
2021/05/28 12:52:16;;;;;;;14.02;13.02;;;21.30;42.30;;;;;;5187549;28;20041;-72
2021/05/28 12:54:59;;;;;;;14.30;13.20;;;21.40;38.60;;;;;;5189431;28;20495;-73
2021/05/28 12:57:35;;;;;;;14.77;13.63;;;21.50;42.20;;;;;;5188942;28;20135;-73
2021/05/28 13:00:08;;;;;;;14.73;13.55;;;21.50;43.70;;;;;;5191256;28;20686;-70
2021/05/28 13:02:40;;;;;;;14.73;13.52;;;21.30;42.80;;;;;;5189125;28;20037;-71
2021/05/28 13:05:13;;;;;;;14.85;13.50;;;21.30;41.50;;;;;;5206784;28;20425;-71
2021/05/28 13:07:45;;;;;;;14.63;13.63;;;21.30;44.50;;;;;;5173339;28;20149;-70
2021/05/28 13:10:22;;;;;;;15.00;13.90;;;21.50;44.00;;;;;;5186748;28;20053;-73
2021/05/28 13:13:16;;;;;;;14.93;13.82;;;21.50;41.60;;;;;;5190207;28;20527;-70
2021/05/28 13:15:49;;;;;;;14.68;13.57;;;21.60;42.10;;;;;;5182333;28;20050;-71
2021/05/28 13:18:21;;;;;;;14.38;13.38;;;21.70;39.50;;;;;;5172058;28;20127;-71